Time,TemperatureF,DewpointF,PressureIn,WindDirection,WindDirectionDegrees,WindSpeedMPH,WindSpeedGustMPH,Humidity,HourlyPrecipIn,Conditions,Clouds,dailyrainin,SoftwareType,DateUTC
2013-05-04 00:00:00,44.1,40.8,29.94,WNW,288,0.0,4.0,88,0.01,,---,0.24,VWS V14.01,2013-05-04 05:00:00,
2013-05-04 00:39:00,42.9,40.5,29.92,West,280,4.0,6.0,91,0.03,,---,0.02,VWS V14.01,2013-05-04 05:39:00,
2013-05-04 01:09:00,43.1,40.7,29.92,South,175,0.0,10.0,91,0.03,,---,0.02,VWS V14.01,2013-05-04 06:09:00,
2013-05-04 01:39:00,43.4,41.0,29.92,South,170,0.0,5.0,91,0.02,,---,0.02,VWS V14.01,2013-05-04 06:39:00,
2013-05-04 02:09:00,43.4,41.0,29.91,SE,126,5.0,5.0,91,0.00,,---,0.02,VWS V14.01,2013-05-04 07:09:00,
2013-05-04 02:39:00,43.3,40.8,29.91,WNW,286,3.0,5.0,91,0.00,,---,0.02,VWS V14.01,2013-05-04 07:39:00,
2013-05-04 03:10:00,44.0,41.3,29.91,SSE,155,0.0,5.0,90,0.00,,---,0.02,VWS V14.01,2013-05-04 08:10:00,
2013-05-04 03:40:00,44.0,41.0,29.91,SSW,208,0.0,3.0,89,0.00,,---,0.02,VWS V14.01,2013-05-04 08:40:00,
2013-05-04 04:10:00,44.0,41.0,29.92,SSW,208,0.0,0.0,89,0.00,,---,0.02,VWS V14.01,2013-05-04 09:10:00,
2013-05-04 04:40:00,43.8,40.8,29.92,West,267,0.0,2.0,89,0.00,,---,0.02,VWS V14.01,2013-05-04 09:40:00,
2013-05-04 05:10:00,43.4,40.1,29.92,West,267,0.0,2.0,88,0.00,,---,0.02,VWS V14.01,2013-05-04 10:10:00,
2013-05-04 05:40:00,43.3,40.0,29.93,WNW,295,0.0,3.0,88,0.00,,---,0.02,VWS V14.01,2013-05-04 10:40:00,
2013-05-04 06:10:00,43.3,39.7,29.93,West,271,0.0,3.0,87,0.00,,---,0.02,VWS V14.01,2013-05-04 11:10:00,
2013-05-04 06:30:00,43.8,40.2,29.94,WNW,286,0.0,3.0,87,0.00,,---,0.02,VWS V14.01,2013-05-04 11:30:00,
2013-05-04 07:40:00,46.4,41.5,29.94,WNW,284,0.0,0.0,83,0.00,,---,0.02,VWS V14.01,2013-05-04 12:40:00,
2013-05-04 08:00:00,48.2,43.0,29.95,SSE,157,0.0,0.0,82,0.00,,---,0.02,VWS V14.01,2013-05-04 13:00:00,
2013-05-04 08:40:00,50.0,44.1,29.95,South,186,0.0,0.0,80,0.00,,---,0.02,VWS V14.01,2013-05-04 13:40:00,
2013-05-04 09:10:00,52.5,44.8,29.95,West,278,0.0,1.0,75,0.00,,---,0.02,VWS V14.01,2013-05-04 14:10:00,
2013-05-04 09:40:00,55.0,46.5,29.95,SE,130,0.0,1.0,73,0.00,,---,0.02,VWS V14.01,2013-05-04 14:40:00,
2013-05-04 10:10:00,56.7,45.9,29.96,ESE,121,0.0,5.0,67,0.00,,---,0.02,VWS V14.01,2013-05-04 15:10:00,
2013-05-04 10:40:00,57.3,45.7,29.96,SE,126,0.0,7.0,65,0.00,,---,0.02,VWS V14.01,2013-05-04 15:40:00,
2013-05-04 11:10:00,59.4,46.8,29.96,ESE,118,0.0,10.0,63,0.00,,---,0.02,VWS V14.01,2013-05-04 16:10:00,
2013-05-04 11:40:00,60.9,47.4,29.95,ESE,117,1.0,11.0,61,0.00,,---,0.02,VWS V14.01,2013-05-04 16:40:00,
2013-05-04 12:10:00,63.6,48.6,29.94,NE,39,0.0,7.0,58,0.00,,---,0.02,VWS V14.01,2013-05-04 17:10:00,
2013-05-04 12:40:00,64.9,49.8,29.94,SE,128,0.0,9.0,58,0.00,,---,0.02,VWS V14.01,2013-05-04 17:40:00,
2013-05-04 13:00:00,65.0,48.0,29.93,NE,53,0.0,15.0,54,0.00,,---,0.02,VWS V14.01,2013-05-04 18:00:00,
2013-05-04 13:40:00,65.7,48.6,29.93,NE,39,0.0,12.0,54,0.00,,---,0.02,VWS V14.01,2013-05-04 18:40:00,
2013-05-04 14:00:00,66.8,50.6,29.93,ESE,116,2.0,13.0,56,0.00,,---,0.02,VWS V14.01,2013-05-04 19:00:00,
2013-05-04 14:30:00,65.5,48.4,29.92,SE,124,4.0,20.0,54,0.00,,---,0.02,VWS V14.01,2013-05-04 19:30:00,
2013-05-04 15:00:00,66.4,48.8,29.92,SE,134,4.0,15.0,53,0.00,,---,0.02,VWS V14.01,2013-05-04 20:00:00,
2013-05-04 15:30:00,68.0,49.2,29.92,ENE,78,3.0,12.0,51,0.00,,---,0.02,VWS V14.01,2013-05-04 20:30:00,
2013-05-04 16:00:00,68.4,48.5,29.91,NNW,329,0.0,16.0,49,0.00,,---,0.02,VWS V14.01,2013-05-04 21:00:00,
2013-05-04 16:39:00,69.0,49.1,29.91,SE,130,0.0,13.0,49,0.00,,---,0.02,VWS V14.01,2013-05-04 21:39:00,
2013-05-04 17:00:00,66.9,48.2,29.92,SE,142,0.0,16.0,51,0.00,,---,0.02,VWS V14.01,2013-05-04 22:00:00,
2013-05-04 17:39:00,65.5,47.9,29.92,SSE,166,0.0,6.0,53,0.00,,---,0.02,VWS V14.01,2013-05-04 22:39:00,
2013-05-04 18:00:00,64.7,48.2,29.92,ESE,114,0.0,2.0,55,0.00,,---,0.02,VWS V14.01,2013-05-04 23:00:00,
2013-05-04 18:30:00,61.7,46.8,29.93,West,269,0.0,4.0,58,0.00,,---,0.02,VWS V14.01,2013-05-04 23:30:00,
2013-05-04 19:00:00,58.7,45.7,29.94,WSW,248,0.0,5.0,62,0.00,,---,0.02,VWS V14.01,2013-05-05 00:00:00,
2013-05-04 19:30:00,56.7,45.1,29.95,SW,227,0.0,4.0,65,0.00,,---,0.02,VWS V14.01,2013-05-05 00:30:00,
2013-05-04 20:00:00,54.5,44.5,29.95,South,186,0.0,2.0,69,0.00,,---,0.02,VWS V14.01,2013-05-05 01:00:00,
2013-05-04 20:30:00,53.4,43.1,29.96,WSW,248,0.0,4.0,68,0.00,,---,0.02,VWS V14.01,2013-05-05 01:30:00,
2013-05-04 21:00:00,52.9,43.0,29.96,SW,219,0.0,6.0,69,0.00,,---,0.02,VWS V14.01,2013-05-05 02:00:00,
2013-05-04 21:30:00,52.5,43.0,29.96,SW,219,0.0,2.0,70,0.00,,---,0.02,VWS V14.01,2013-05-05 02:30:00,
2013-05-04 22:00:00,52.2,42.7,29.96,SW,215,0.0,0.0,70,0.00,,---,0.02,VWS V14.01,2013-05-05 03:00:00,
2013-05-04 22:30:00,52.0,42.5,29.95,SW,215,0.0,1.0,70,0.00,,---,0.02,VWS V14.01,2013-05-05 03:30:00,
2013-05-04 23:00:00,51.0,42.3,29.96,SW,215,0.0,0.0,72,0.00,,---,0.02,VWS V14.01,2013-05-05 04:00:00,
2013-05-04 23:30:00,50.9,42.6,29.95,SSW,213,0.0,1.0,73,0.00,,---,0.02,VWS V14.01,2013-05-05 04:30:00,